sensor_id;sensor_type;location;lat;lon;timestamp;temperature;humidity
33931;DHT22;20215;53.130;6.408;2022-08-21T00:00:47;25.90;56.50
33931;DHT22;20215;53.130;6.408;2022-08-21T00:03:14;25.90;56.50
33931;DHT22;20215;53.130;6.408;2022-08-21T00:05:43;25.90;56.60
33931;DHT22;20215;53.130;6.408;2022-08-21T00:08:09;25.90;56.70
33931;DHT22;20215;53.130;6.408;2022-08-21T00:10:37;25.80;56.60
33931;DHT22;20215;53.130;6.408;2022-08-21T00:13:04;25.80;56.60
33931;DHT22;20215;53.130;6.408;2022-08-21T00:15:34;25.80;56.60
33931;DHT22;20215;53.130;6.408;2022-08-21T00:18:00;25.80;56.70
33931;DHT22;20215;53.130;6.408;2022-08-21T00:20:26;25.80;56.70
33931;DHT22;20215;53.130;6.408;2022-08-21T00:22:51;25.80;56.80
33931;DHT22;20215;53.130;6.408;2022-08-21T00:25:18;25.80;56.80
33931;DHT22;20215;53.130;6.408;2022-08-21T00:27:44;25.80;56.80
33931;DHT22;20215;53.130;6.408;2022-08-21T00:30:13;25.80;56.80
33931;DHT22;20215;53.130;6.408;2022-08-21T00:32:40;25.70;56.80
33931;DHT22;20215;53.130;6.408;2022-08-21T00:35:08;25.80;56.90
33931;DHT22;20215;53.130;6.408;2022-08-21T00:37:34;25.70;56.80
33931;DHT22;20215;53.130;6.408;2022-08-21T00:40:00;25.70;56.90
33931;DHT22;20215;53.130;6.408;2022-08-21T00:42:28;25.70;56.90
33931;DHT22;20215;53.130;6.408;2022-08-21T00:44:55;25.70;56.90
33931;DHT22;20215;53.130;6.408;2022-08-21T00:47:21;25.70;56.90
33931;DHT22;20215;53.130;6.408;2022-08-21T00:49:47;25.60;57.00
33931;DHT22;20215;53.130;6.408;2022-08-21T00:52:17;25.70;57.50
33931;DHT22;20215;53.130;6.408;2022-08-21T00:54:44;25.60;57.00
33931;DHT22;20215;53.130;6.408;2022-08-21T00:57:20;25.60;57.00
33931;DHT22;20215;53.130;6.408;2022-08-21T00:59:49;25.60;57.30
33931;DHT22;20215;53.130;6.408;2022-08-21T01:02:17;25.60;57.30
33931;DHT22;20215;53.130;6.408;2022-08-21T01:04:43;25.60;57.20
33931;DHT22;20215;53.130;6.408;2022-08-21T01:07:09;25.60;57.20
33931;DHT22;20215;53.130;6.408;2022-08-21T01:09:35;25.60;57.20
33931;DHT22;20215;53.130;6.408;2022-08-21T01:12:02;25.60;57.20
33931;DHT22;20215;53.130;6.408;2022-08-21T01:14:28;25.60;57.20
33931;DHT22;20215;53.130;6.408;2022-08-21T01:16:56;25.60;57.20
33931;DHT22;20215;53.130;6.408;2022-08-21T01:19:23;25.60;57.20
33931;DHT22;20215;53.130;6.408;2022-08-21T01:21:50;25.60;57.20
33931;DHT22;20215;53.130;6.408;2022-08-21T01:24:16;25.50;57.20
33931;DHT22;20215;53.130;6.408;2022-08-21T01:26:43;25.50;57.30
33931;DHT22;20215;53.130;6.408;2022-08-21T01:29:39;25.50;57.20
33931;DHT22;20215;53.130;6.408;2022-08-21T01:32:10;25.50;57.20
33931;DHT22;20215;53.130;6.408;2022-08-21T01:34:38;25.50;57.30
33931;DHT22;20215;53.130;6.408;2022-08-21T01:37:05;25.50;57.30
33931;DHT22;20215;53.130;6.408;2022-08-21T01:39:31;25.50;57.40
33931;DHT22;20215;53.130;6.408;2022-08-21T01:41:57;25.50;57.30
33931;DHT22;20215;53.130;6.408;2022-08-21T01:44:24;25.40;57.20
33931;DHT22;20215;53.130;6.408;2022-08-21T01:46:50;25.40;57.30
33931;DHT22;20215;53.130;6.408;2022-08-21T01:49:16;25.40;57.30
33931;DHT22;20215;53.130;6.408;2022-08-21T01:51:42;25.40;57.30
33931;DHT22;20215;53.130;6.408;2022-08-21T01:54:07;25.40;57.30
33931;DHT22;20215;53.130;6.408;2022-08-21T01:56:43;25.40;57.30
33931;DHT22;20215;53.130;6.408;2022-08-21T01:59:09;25.40;57.30
33931;DHT22;20215;53.130;6.408;2022-08-21T02:01:35;25.40;57.40
33931;DHT22;20215;53.130;6.408;2022-08-21T02:04:02;25.40;57.40
33931;DHT22;20215;53.130;6.408;2022-08-21T02:06:29;25.40;57.40
33931;DHT22;20215;53.130;6.408;2022-08-21T02:08:54;25.40;57.40
33931;DHT22;20215;53.130;6.408;2022-08-21T02:11:20;25.30;57.40
33931;DHT22;20215;53.130;6.408;2022-08-21T02:13:46;25.30;57.90
33931;DHT22;20215;53.130;6.408;2022-08-21T02:16:12;25.30;57.40
33931;DHT22;20215;53.130;6.408;2022-08-21T02:18:38;25.30;57.40
33931;DHT22;20215;53.130;6.408;2022-08-21T02:21:04;25.30;57.40
33931;DHT22;20215;53.130;6.408;2022-08-21T02:23:31;25.30;57.40
33931;DHT22;20215;53.130;6.408;2022-08-21T02:25:57;25.30;57.40
33931;DHT22;20215;53.130;6.408;2022-08-21T02:28:23;25.30;57.40
33931;DHT22;20215;53.130;6.408;2022-08-21T02:30:50;25.30;57.40
33931;DHT22;20215;53.130;6.408;2022-08-21T02:33:16;25.30;57.40
33931;DHT22;20215;53.130;6.408;2022-08-21T02:35:44;25.30;57.40
33931;DHT22;20215;53.130;6.408;2022-08-21T02:38:13;25.30;57.50
33931;DHT22;20215;53.130;6.408;2022-08-21T02:40:41;25.30;57.50
33931;DHT22;20215;53.130;6.408;2022-08-21T02:43:08;25.30;57.50
33931;DHT22;20215;53.130;6.408;2022-08-21T02:45:35;25.20;57.50
33931;DHT22;20215;53.130;6.408;2022-08-21T02:48:07;25.30;57.50
33931;DHT22;20215;53.130;6.408;2022-08-21T02:50:39;25.20;57.40
33931;DHT22;20215;53.130;6.408;2022-08-21T02:53:06;25.20;57.50
33931;DHT22;20215;53.130;6.408;2022-08-21T02:55:33;25.20;57.50
33931;DHT22;20215;53.130;6.408;2022-08-21T02:58:01;25.20;57.50
33931;DHT22;20215;53.130;6.408;2022-08-21T03:00:29;25.20;57.60
33931;DHT22;20215;53.130;6.408;2022-08-21T03:02:55;25.20;57.50
33931;DHT22;20215;53.130;6.408;2022-08-21T03:05:22;25.20;57.50
33931;DHT22;20215;53.130;6.408;2022-08-21T03:07:48;25.20;57.50
33931;DHT22;20215;53.130;6.408;2022-08-21T03:10:15;25.20;57.50
33931;DHT22;20215;53.130;6.408;2022-08-21T03:12:41;25.20;57.50
33931;DHT22;20215;53.130;6.408;2022-08-21T03:15:10;25.10;57.40
33931;DHT22;20215;53.130;6.408;2022-08-21T03:17:36;25.20;57.60
33931;DHT22;20215;53.130;6.408;2022-08-21T03:20:04;25.10;57.40
33931;DHT22;20215;53.130;6.408;2022-08-21T03:22:30;25.10;57.50
33931;DHT22;20215;53.130;6.408;2022-08-21T03:24:57;25.10;57.50
33931;DHT22;20215;53.130;6.408;2022-08-21T03:27:24;25.10;57.50
33931;DHT22;20215;53.130;6.408;2022-08-21T03:29:53;25.10;57.50
33931;DHT22;20215;53.130;6.408;2022-08-21T03:32:18;25.10;57.60
33931;DHT22;20215;53.130;6.408;2022-08-21T03:34:45;25.10;57.60
33931;DHT22;20215;53.130;6.408;2022-08-21T03:37:11;25.10;57.60
33931;DHT22;20215;53.130;6.408;2022-08-21T03:39:37;25.10;57.60
33931;DHT22;20215;53.130;6.408;2022-08-21T03:42:03;25.10;57.70
33931;DHT22;20215;53.130;6.408;2022-08-21T03:44:30;25.10;57.70
33931;DHT22;20215;53.130;6.408;2022-08-21T03:46:57;25.10;57.90
33931;DHT22;20215;53.130;6.408;2022-08-21T03:49:23;25.10;58.10
33931;DHT22;20215;53.130;6.408;2022-08-21T03:51:49;25.10;58.00
33931;DHT22;20215;53.130;6.408;2022-08-21T03:54:14;25.10;58.20
33931;DHT22;20215;53.130;6.408;2022-08-21T03:56:40;25.10;58.40
33931;DHT22;20215;53.130;6.408;2022-08-21T03:59:06;25.10;59.10
33931;DHT22;20215;53.130;6.408;2022-08-21T04:01:32;25.10;58.50
33931;DHT22;20215;53.130;6.408;2022-08-21T04:03:58;25.10;58.60
33931;DHT22;20215;53.130;6.408;2022-08-21T04:06:24;25.10;58.70
33931;DHT22;20215;53.130;6.408;2022-08-21T04:08:52;25.10;58.70
33931;DHT22;20215;53.130;6.408;2022-08-21T04:11:18;25.10;58.70
33931;DHT22;20215;53.130;6.408;2022-08-21T04:13:43;25.10;58.60
33931;DHT22;20215;53.130;6.408;2022-08-21T04:16:09;25.10;58.70
33931;DHT22;20215;53.130;6.408;2022-08-21T04:18:36;25.10;58.70
33931;DHT22;20215;53.130;6.408;2022-08-21T04:21:02;25.10;58.70
33931;DHT22;20215;53.130;6.408;2022-08-21T04:23:28;25.10;58.70
33931;DHT22;20215;53.130;6.408;2022-08-21T04:25:56;25.10;58.70
33931;DHT22;20215;53.130;6.408;2022-08-21T04:28:23;25.10;58.70
33931;DHT22;20215;53.130;6.408;2022-08-21T04:30:51;25.10;58.70
33931;DHT22;20215;53.130;6.408;2022-08-21T04:33:19;25.10;58.80
33931;DHT22;20215;53.130;6.408;2022-08-21T04:35:45;25.10;58.80
33931;DHT22;20215;53.130;6.408;2022-08-21T04:38:10;25.00;58.80
33931;DHT22;20215;53.130;6.408;2022-08-21T04:40:36;25.10;58.80
33931;DHT22;20215;53.130;6.408;2022-08-21T04:43:05;25.00;58.80
33931;DHT22;20215;53.130;6.408;2022-08-21T04:45:38;25.10;58.90
33931;DHT22;20215;53.130;6.408;2022-08-21T04:48:05;25.00;58.80
33931;DHT22;20215;53.130;6.408;2022-08-21T04:53:12;25.00;58.70
33931;DHT22;20215;53.130;6.408;2022-08-21T04:55:40;25.10;58.70
33931;DHT22;20215;53.130;6.408;2022-08-21T04:58:08;25.10;58.80
33931;DHT22;20215;53.130;6.408;2022-08-21T05:00:34;25.00;58.70
33931;DHT22;20215;53.130;6.408;2022-08-21T05:03:01;25.00;58.60
33931;DHT22;20215;53.130;6.408;2022-08-21T05:05:28;25.00;58.60
33931;DHT22;20215;53.130;6.408;2022-08-21T05:07:55;25.00;58.60
33931;DHT22;20215;53.130;6.408;2022-08-21T05:10:21;25.00;58.60
33931;DHT22;20215;53.130;6.408;2022-08-21T05:12:48;25.10;58.60
33931;DHT22;20215;53.130;6.408;2022-08-21T05:15:14;25.10;58.60
33931;DHT22;20215;53.130;6.408;2022-08-21T05:17:41;25.00;58.50
33931;DHT22;20215;53.130;6.408;2022-08-21T05:20:08;25.00;58.50
33931;DHT22;20215;53.130;6.408;2022-08-21T05:22:34;25.10;58.60
33931;DHT22;20215;53.130;6.408;2022-08-21T05:25:00;25.10;58.50
33931;DHT22;20215;53.130;6.408;2022-08-21T05:27:25;25.10;58.50
33931;DHT22;20215;53.130;6.408;2022-08-21T05:29:51;25.00;58.40
33931;DHT22;20215;53.130;6.408;2022-08-21T05:32:16;25.10;58.50
33931;DHT22;20215;53.130;6.408;2022-08-21T05:34:42;25.00;58.40
33931;DHT22;20215;53.130;6.408;2022-08-21T05:37:12;25.00;58.40
33931;DHT22;20215;53.130;6.408;2022-08-21T05:39:38;25.10;58.50
33931;DHT22;20215;53.130;6.408;2022-08-21T05:42:03;25.10;58.50
33931;DHT22;20215;53.130;6.408;2022-08-21T05:44:29;25.10;58.40
33931;DHT22;20215;53.130;6.408;2022-08-21T05:47:04;25.00;58.40
33931;DHT22;20215;53.130;6.408;2022-08-21T05:49:33;25.10;58.40
33931;DHT22;20215;53.130;6.408;2022-08-21T05:51:58;25.00;58.30
33931;DHT22;20215;53.130;6.408;2022-08-21T05:54:29;25.10;58.60
33931;DHT22;20215;53.130;6.408;2022-08-21T05:56:55;25.10;58.60
33931;DHT22;20215;53.130;6.408;2022-08-21T05:59:21;25.10;58.60
33931;DHT22;20215;53.130;6.408;2022-08-21T06:01:46;25.10;58.50
33931;DHT22;20215;53.130;6.408;2022-08-21T06:04:12;25.10;58.50
33931;DHT22;20215;53.130;6.408;2022-08-21T06:06:39;25.10;58.50
33931;DHT22;20215;53.130;6.408;2022-08-21T06:09:05;25.10;58.50
33931;DHT22;20215;53.130;6.408;2022-08-21T06:11:31;25.10;58.60
33931;DHT22;20215;53.130;6.408;2022-08-21T06:13:58;25.20;58.70
33931;DHT22;20215;53.130;6.408;2022-08-21T06:16:25;25.10;58.70
33931;DHT22;20215;53.130;6.408;2022-08-21T06:18:51;25.10;58.60
33931;DHT22;20215;53.130;6.408;2022-08-21T06:21:17;25.20;58.70
33931;DHT22;20215;53.130;6.408;2022-08-21T06:23:43;25.10;58.60
33931;DHT22;20215;53.130;6.408;2022-08-21T06:26:10;25.10;58.60
33931;DHT22;20215;53.130;6.408;2022-08-21T06:28:36;25.20;58.70
33931;DHT22;20215;53.130;6.408;2022-08-21T06:31:17;25.20;58.70
33931;DHT22;20215;53.130;6.408;2022-08-21T06:33:44;25.20;58.70
33931;DHT22;20215;53.130;6.408;2022-08-21T06:36:10;25.10;58.60
33931;DHT22;20215;53.130;6.408;2022-08-21T06:38:37;25.10;58.60
33931;DHT22;20215;53.130;6.408;2022-08-21T06:41:03;25.20;58.70
33931;DHT22;20215;53.130;6.408;2022-08-21T06:43:29;25.20;58.70
33931;DHT22;20215;53.130;6.408;2022-08-21T06:45:55;25.20;58.60
33931;DHT22;20215;53.130;6.408;2022-08-21T06:48:21;25.20;58.60
33931;DHT22;20215;53.130;6.408;2022-08-21T06:50:47;25.20;58.60
33931;DHT22;20215;53.130;6.408;2022-08-21T06:53:14;25.20;58.60
33931;DHT22;20215;53.130;6.408;2022-08-21T06:55:41;25.20;58.60
33931;DHT22;20215;53.130;6.408;2022-08-21T06:58:08;25.30;58.60
33931;DHT22;20215;53.130;6.408;2022-08-21T07:00:34;25.20;58.50
33931;DHT22;20215;53.130;6.408;2022-08-21T07:03:00;25.20;58.50
33931;DHT22;20215;53.130;6.408;2022-08-21T07:05:28;25.20;58.50
33931;DHT22;20215;53.130;6.408;2022-08-21T07:07:54;25.30;58.50
33931;DHT22;20215;53.130;6.408;2022-08-21T07:10:19;25.30;58.50
33931;DHT22;20215;53.130;6.408;2022-08-21T07:12:45;25.30;58.40
33931;DHT22;20215;53.130;6.408;2022-08-21T07:15:11;25.30;58.40
33931;DHT22;20215;53.130;6.408;2022-08-21T07:17:36;25.30;58.30
33931;DHT22;20215;53.130;6.408;2022-08-21T07:20:04;25.30;58.20
33931;DHT22;20215;53.130;6.408;2022-08-21T07:22:30;25.30;58.10
33931;DHT22;20215;53.130;6.408;2022-08-21T07:24:55;25.30;58.10
33931;DHT22;20215;53.130;6.408;2022-08-21T07:27:23;25.30;58.00
33931;DHT22;20215;53.130;6.408;2022-08-21T07:29:48;25.30;57.90
33931;DHT22;20215;53.130;6.408;2022-08-21T07:32:14;25.40;57.90
33931;DHT22;20215;53.130;6.408;2022-08-21T07:34:41;25.40;57.80
33931;DHT22;20215;53.130;6.408;2022-08-21T07:37:06;25.40;57.70
33931;DHT22;20215;53.130;6.408;2022-08-21T07:39:32;25.40;57.60
33931;DHT22;20215;53.130;6.408;2022-08-21T07:41:57;25.40;57.50
33931;DHT22;20215;53.130;6.408;2022-08-21T07:44:23;25.50;57.40
33931;DHT22;20215;53.130;6.408;2022-08-21T07:46:49;25.40;57.20
33931;DHT22;20215;53.130;6.408;2022-08-21T07:49:14;25.50;57.10
33931;DHT22;20215;53.130;6.408;2022-08-21T07:51:42;25.50;57.00
33931;DHT22;20215;53.130;6.408;2022-08-21T07:54:07;25.50;56.90
33931;DHT22;20215;53.130;6.408;2022-08-21T07:56:33;25.50;56.80
33931;DHT22;20215;53.130;6.408;2022-08-21T07:58:59;25.60;56.80
33931;DHT22;20215;53.130;6.408;2022-08-21T08:01:25;25.60;56.70
33931;DHT22;20215;53.130;6.408;2022-08-21T08:03:50;25.60;56.60
33931;DHT22;20215;53.130;6.408;2022-08-21T08:06:17;25.60;56.50
33931;DHT22;20215;53.130;6.408;2022-08-21T08:08:44;25.60;56.40
33931;DHT22;20215;53.130;6.408;2022-08-21T08:11:11;25.60;56.30
33931;DHT22;20215;53.130;6.408;2022-08-21T08:13:48;25.70;56.30
33931;DHT22;20215;53.130;6.408;2022-08-21T08:16:14;25.70;56.20
33931;DHT22;20215;53.130;6.408;2022-08-21T08:18:40;25.70;56.20
33931;DHT22;20215;53.130;6.408;2022-08-21T08:21:08;25.70;56.10
33931;DHT22;20215;53.130;6.408;2022-08-21T08:23:33;25.70;56.00
33931;DHT22;20215;53.130;6.408;2022-08-21T08:25:59;25.70;55.90
33931;DHT22;20215;53.130;6.408;2022-08-21T08:28:25;25.80;55.90
33931;DHT22;20215;53.130;6.408;2022-08-21T08:30:51;25.80;55.90
33931;DHT22;20215;53.130;6.408;2022-08-21T08:33:17;25.80;55.80
33931;DHT22;20215;53.130;6.408;2022-08-21T08:35:46;25.80;55.80
33931;DHT22;20215;53.130;6.408;2022-08-21T08:38:13;25.80;55.70
33931;DHT22;20215;53.130;6.408;2022-08-21T08:40:47;25.90;55.70
33931;DHT22;20215;53.130;6.408;2022-08-21T08:43:16;25.90;55.70
33931;DHT22;20215;53.130;6.408;2022-08-21T08:45:46;25.80;55.80
33931;DHT22;20215;53.130;6.408;2022-08-21T08:48:21;25.90;55.80
33931;DHT22;20215;53.130;6.408;2022-08-21T08:50:56;25.90;55.60
33931;DHT22;20215;53.130;6.408;2022-08-21T08:53:24;25.90;55.60
33931;DHT22;20215;53.130;6.408;2022-08-21T08:55:52;26.00;55.50
33931;DHT22;20215;53.130;6.408;2022-08-21T08:58:32;25.90;55.60
33931;DHT22;20215;53.130;6.408;2022-08-21T09:00:59;26.00;55.50
33931;DHT22;20215;53.130;6.408;2022-08-21T09:03:26;26.00;55.50
33931;DHT22;20215;53.130;6.408;2022-08-21T09:11:30;26.10;55.30
33931;DHT22;20215;53.130;6.408;2022-08-21T09:16:55;26.20;55.20
33931;DHT22;20215;53.130;6.408;2022-08-21T09:19:42;26.20;55.10
33931;DHT22;20215;53.130;6.408;2022-08-21T09:25:24;26.20;55.00
33931;DHT22;20215;53.130;6.408;2022-08-21T09:27:51;26.20;55.10
33931;DHT22;20215;53.130;6.408;2022-08-21T09:30:17;26.20;55.10
33931;DHT22;20215;53.130;6.408;2022-08-21T09:32:44;26.30;54.90
33931;DHT22;20215;53.130;6.408;2022-08-21T09:35:17;26.40;54.70
33931;DHT22;20215;53.130;6.408;2022-08-21T09:37:54;26.50;54.50
33931;DHT22;20215;53.130;6.408;2022-08-21T09:43:19;26.60;54.40
33931;DHT22;20215;53.130;6.408;2022-08-21T09:45:46;26.60;54.80
33931;DHT22;20215;53.130;6.408;2022-08-21T09:53:25;26.60;54.20
33931;DHT22;20215;53.130;6.408;2022-08-21T09:55:54;26.70;54.20
33931;DHT22;20215;53.130;6.408;2022-08-21T09:58:42;26.70;54.20
33931;DHT22;20215;53.130;6.408;2022-08-21T10:01:14;26.70;54.10
33931;DHT22;20215;53.130;6.408;2022-08-21T10:03:40;26.80;53.90
33931;DHT22;20215;53.130;6.408;2022-08-21T10:06:08;26.90;53.70
33931;DHT22;20215;53.130;6.408;2022-08-21T10:08:38;27.10;53.50
33931;DHT22;20215;53.130;6.408;2022-08-21T10:11:09;27.00;53.30
33931;DHT22;20215;53.130;6.408;2022-08-21T10:19:39;27.20;52.80
33931;DHT22;20215;53.130;6.408;2022-08-21T10:25:58;27.20;53.00
33931;DHT22;20215;53.130;6.408;2022-08-21T10:31:07;27.00;53.30
33931;DHT22;20215;53.130;6.408;2022-08-21T10:36:23;26.80;53.50
33931;DHT22;20215;53.130;6.408;2022-08-21T10:47:05;26.80;53.60
33931;DHT22;20215;53.130;6.408;2022-08-21T10:49:47;26.80;53.80
33931;DHT22;20215;53.130;6.408;2022-08-21T10:57:34;26.50;54.40
33931;DHT22;20215;53.130;6.408;2022-08-21T11:00:11;26.50;54.50
33931;DHT22;20215;53.130;6.408;2022-08-21T11:03:00;26.40;54.60
33931;DHT22;20215;53.130;6.408;2022-08-21T11:05:38;26.40;54.70
33931;DHT22;20215;53.130;6.408;2022-08-21T11:08:28;26.30;54.70
33931;DHT22;20215;53.130;6.408;2022-08-21T11:11:01;26.30;54.80
33931;DHT22;20215;53.130;6.408;2022-08-21T11:25:00;26.40;54.90
33931;DHT22;20215;53.130;6.408;2022-08-21T11:27:45;26.60;54.70
33931;DHT22;20215;53.130;6.408;2022-08-21T11:30:13;27.00;54.20
33931;DHT22;20215;53.130;6.408;2022-08-21T11:38:55;28.50;50.60
33931;DHT22;20215;53.130;6.408;2022-08-21T11:44:20;29.40;48.30
33931;DHT22;20215;53.130;6.408;2022-08-21T11:52:42;29.60;48.10
33931;DHT22;20215;53.130;6.408;2022-08-21T11:55:15;30.90;46.10
33931;DHT22;20215;53.130;6.408;2022-08-21T11:58:09;31.30;44.90
33931;DHT22;20215;53.130;6.408;2022-08-21T12:00:43;31.10;44.80
33931;DHT22;20215;53.130;6.408;2022-08-21T12:05:51;30.90;45.20
33931;DHT22;20215;53.130;6.408;2022-08-21T12:08:32;31.80;44.50
33931;DHT22;20215;53.130;6.408;2022-08-21T12:13:29;33.30;42.20
33931;DHT22;20215;53.130;6.408;2022-08-21T12:16:13;32.40;42.00
33931;DHT22;20215;53.130;6.408;2022-08-21T12:18:40;31.40;43.40
33931;DHT22;20215;53.130;6.408;2022-08-21T12:21:23;30.40;45.00
33931;DHT22;20215;53.130;6.408;2022-08-21T12:26:59;29.10;47.70
33931;DHT22;20215;53.130;6.408;2022-08-21T12:31:59;28.40;49.20
33931;DHT22;20215;53.130;6.408;2022-08-21T12:34:38;28.20;49.60
33931;DHT22;20215;53.130;6.408;2022-08-21T12:37:34;28.10;49.90
33931;DHT22;20215;53.130;6.408;2022-08-21T12:40:10;28.00;50.10
33931;DHT22;20215;53.130;6.408;2022-08-21T12:42:41;28.30;50.00
33931;DHT22;20215;53.130;6.408;2022-08-21T12:45:20;30.40;46.60
33931;DHT22;20215;53.130;6.408;2022-08-21T12:53:30;29.00;47.90
33931;DHT22;20215;53.130;6.408;2022-08-21T12:55:57;28.60;48.70
33931;DHT22;20215;53.130;6.408;2022-08-21T12:58:29;28.30;49.30
33931;DHT22;20215;53.130;6.408;2022-08-21T13:01:03;28.10;49.70
33931;DHT22;20215;53.130;6.408;2022-08-21T13:03:31;27.90;50.20
33931;DHT22;20215;53.130;6.408;2022-08-21T13:05:58;27.80;50.50
33931;DHT22;20215;53.130;6.408;2022-08-21T13:08:25;27.70;51.10
33931;DHT22;20215;53.130;6.408;2022-08-21T13:10:58;27.50;51.40
33931;DHT22;20215;53.130;6.408;2022-08-21T13:13:26;27.40;51.80
33931;DHT22;20215;53.130;6.408;2022-08-21T13:16:03;27.30;52.30
33931;DHT22;20215;53.130;6.408;2022-08-21T13:18:32;27.30;52.70
33931;DHT22;20215;53.130;6.408;2022-08-21T13:21:12;27.10;52.40
33931;DHT22;20215;53.130;6.408;2022-08-21T13:23:38;27.10;52.80
33931;DHT22;20215;53.130;6.408;2022-08-21T13:26:35;27.00;53.40
33931;DHT22;20215;53.130;6.408;2022-08-21T13:29:10;27.00;53.30
33931;DHT22;20215;53.130;6.408;2022-08-21T13:31:37;26.90;53.20
33931;DHT22;20215;53.130;6.408;2022-08-21T13:34:05;26.90;53.30
33931;DHT22;20215;53.130;6.408;2022-08-21T13:36:35;26.80;53.30
33931;DHT22;20215;53.130;6.408;2022-08-21T13:39:03;26.90;53.40
33931;DHT22;20215;53.130;6.408;2022-08-21T13:41:34;27.00;53.20
33931;DHT22;20215;53.130;6.408;2022-08-21T13:44:05;27.90;52.30
33931;DHT22;20215;53.130;6.408;2022-08-21T13:46:35;28.80;50.20
33931;DHT22;20215;53.130;6.408;2022-08-21T13:49:03;28.80;49.30
33931;DHT22;20215;53.130;6.408;2022-08-21T13:51:31;28.60;49.60
33931;DHT22;20215;53.130;6.408;2022-08-21T13:53:57;28.30;50.00
33931;DHT22;20215;53.130;6.408;2022-08-21T13:58:54;28.10;50.70
33931;DHT22;20215;53.130;6.408;2022-08-21T14:01:49;28.10;50.70
33931;DHT22;20215;53.130;6.408;2022-08-21T14:04:25;29.90;49.20
33931;DHT22;20215;53.130;6.408;2022-08-21T14:06:51;31.00;47.00
33931;DHT22;20215;53.130;6.408;2022-08-21T14:09:34;31.60;45.70
33931;DHT22;20215;53.130;6.408;2022-08-21T14:12:11;32.00;45.20
33931;DHT22;20215;53.130;6.408;2022-08-21T14:14:38;32.00;44.60
33931;DHT22;20215;53.130;6.408;2022-08-21T14:17:08;31.90;44.90
33931;DHT22;20215;53.130;6.408;2022-08-21T14:19:46;31.80;44.40
33931;DHT22;20215;53.130;6.408;2022-08-21T14:22:43;31.40;44.30
33931;DHT22;20215;53.130;6.408;2022-08-21T14:28:23;30.80;45.20
33931;DHT22;20215;53.130;6.408;2022-08-21T14:30:35;30.30;45.50
33931;DHT22;20215;53.130;6.408;2022-08-21T14:33:03;30.00;46.40
33931;DHT22;20215;53.130;6.408;2022-08-21T14:35:30;29.80;46.70
33931;DHT22;20215;53.130;6.408;2022-08-21T14:37:56;29.90;46.70
33931;DHT22;20215;53.130;6.408;2022-08-21T14:40:23;29.90;46.70
33931;DHT22;20215;53.130;6.408;2022-08-21T14:42:50;29.90;46.60
33931;DHT22;20215;53.130;6.408;2022-08-21T14:47:49;29.90;46.50
33931;DHT22;20215;53.130;6.408;2022-08-21T14:50:15;29.90;46.40
33931;DHT22;20215;53.130;6.408;2022-08-21T14:52:41;29.80;46.40
33931;DHT22;20215;53.130;6.408;2022-08-21T14:55:09;29.80;46.40
33931;DHT22;20215;53.130;6.408;2022-08-21T14:57:47;29.80;46.60
33931;DHT22;20215;53.130;6.408;2022-08-21T15:00:18;29.80;46.60
33931;DHT22;20215;53.130;6.408;2022-08-21T15:02:45;29.50;46.60
33931;DHT22;20215;53.130;6.408;2022-08-21T15:05:12;29.30;47.10
33931;DHT22;20215;53.130;6.408;2022-08-21T15:07:38;29.20;47.40
33931;DHT22;20215;53.130;6.408;2022-08-21T15:10:05;29.10;47.60
33931;DHT22;20215;53.130;6.408;2022-08-21T15:12:30;29.10;47.70
33931;DHT22;20215;53.130;6.408;2022-08-21T15:14:57;29.00;47.70
33931;DHT22;20215;53.130;6.408;2022-08-21T15:17:23;29.00;47.60
33931;DHT22;20215;53.130;6.408;2022-08-21T15:19:49;29.00;47.70
33931;DHT22;20215;53.130;6.408;2022-08-21T15:22:15;29.00;47.50
33931;DHT22;20215;53.130;6.408;2022-08-21T15:24:40;29.00;47.60
33931;DHT22;20215;53.130;6.408;2022-08-21T15:27:07;29.00;47.70
33931;DHT22;20215;53.130;6.408;2022-08-21T15:29:34;28.80;47.60
33931;DHT22;20215;53.130;6.408;2022-08-21T15:32:15;28.70;47.90
33931;DHT22;20215;53.130;6.408;2022-08-21T15:34:41;28.60;48.00
33931;DHT22;20215;53.130;6.408;2022-08-21T15:37:07;28.60;48.00
33931;DHT22;20215;53.130;6.408;2022-08-21T15:39:35;28.50;48.00
33931;DHT22;20215;53.130;6.408;2022-08-21T15:42:02;28.40;48.20
33931;DHT22;20215;53.130;6.408;2022-08-21T15:44:29;28.40;48.30
33931;DHT22;20215;53.130;6.408;2022-08-21T15:46:55;28.40;48.30
33931;DHT22;20215;53.130;6.408;2022-08-21T15:49:22;28.40;48.20
33931;DHT22;20215;53.130;6.408;2022-08-21T15:51:49;28.30;48.30
33931;DHT22;20215;53.130;6.408;2022-08-21T15:54:16;28.30;48.20
33931;DHT22;20215;53.130;6.408;2022-08-21T15:56:45;28.30;48.40
33931;DHT22;20215;53.130;6.408;2022-08-21T15:59:15;28.20;48.50
33931;DHT22;20215;53.130;6.408;2022-08-21T16:01:43;28.20;49.10
33931;DHT22;20215;53.130;6.408;2022-08-21T16:04:10;28.10;48.80
33931;DHT22;20215;53.130;6.408;2022-08-21T16:06:37;28.00;48.90
33931;DHT22;20215;53.130;6.408;2022-08-21T16:09:02;27.90;49.80
33931;DHT22;20215;53.130;6.408;2022-08-21T16:11:28;28.00;50.00
33931;DHT22;20215;53.130;6.408;2022-08-21T16:13:54;27.90;49.90
33931;DHT22;20215;53.130;6.408;2022-08-21T16:16:22;27.90;50.10
33931;DHT22;20215;53.130;6.408;2022-08-21T16:18:49;27.90;50.20
33931;DHT22;20215;53.130;6.408;2022-08-21T16:21:16;27.90;49.60
33931;DHT22;20215;53.130;6.408;2022-08-21T16:23:42;27.90;50.00
33931;DHT22;20215;53.130;6.408;2022-08-21T16:26:09;27.90;50.60
33931;DHT22;20215;53.130;6.408;2022-08-21T16:28:38;27.80;49.90
33931;DHT22;20215;53.130;6.408;2022-08-21T16:31:04;27.80;50.30
33931;DHT22;20215;53.130;6.408;2022-08-21T16:33:38;27.80;50.40
33931;DHT22;20215;53.130;6.408;2022-08-21T16:36:06;27.70;51.10
33931;DHT22;20215;53.130;6.408;2022-08-21T16:38:32;27.70;51.20
33931;DHT22;20215;53.130;6.408;2022-08-21T16:40:59;27.60;51.70
33931;DHT22;20215;53.130;6.408;2022-08-21T16:43:27;27.60;51.80
33931;DHT22;20215;53.130;6.408;2022-08-21T16:45:54;27.60;51.90
33931;DHT22;20215;53.130;6.408;2022-08-21T16:48:21;27.50;51.90
33931;DHT22;20215;53.130;6.408;2022-08-21T16:50:47;27.60;52.00
33931;DHT22;20215;53.130;6.408;2022-08-21T16:53:13;27.50;51.90
33931;DHT22;20215;53.130;6.408;2022-08-21T16:55:39;27.60;51.90
33931;DHT22;20215;53.130;6.408;2022-08-21T16:58:14;27.60;51.90
33931;DHT22;20215;53.130;6.408;2022-08-21T17:00:41;27.60;51.90
33931;DHT22;20215;53.130;6.408;2022-08-21T17:03:13;27.70;51.90
33931;DHT22;20215;53.130;6.408;2022-08-21T17:05:40;27.60;51.80
33931;DHT22;20215;53.130;6.408;2022-08-21T17:08:06;27.60;51.90
33931;DHT22;20215;53.130;6.408;2022-08-21T17:10:33;27.60;51.90
33931;DHT22;20215;53.130;6.408;2022-08-21T17:13:00;27.60;52.00
33931;DHT22;20215;53.130;6.408;2022-08-21T17:15:32;27.60;52.00
33931;DHT22;20215;53.130;6.408;2022-08-21T17:17:58;27.50;52.10
33931;DHT22;20215;53.130;6.408;2022-08-21T17:20:25;27.50;52.20